Time;durP1;ratioP1;P1;durP2;ratioP2;P2;SDS_P1;SDS_P2;PMS_P1;PMS_P2;Temp;Humidity;BMP_temperature;BMP_pressure;BME280_temperature;BME280_humidity;BME280_pressure;Samples;Min_cycle;Max_cycle;Signal;HPM_P1;HPM_P2
2023/01/02 00:00:37;;;;;;;82.47;53.47;;;;;;;2.35;100.00;101156.44;5051171;28;20025;-73
2023/01/02 00:03:02;;;;;;;83.75;55.88;;;;;;;2.45;100.00;101165.03;5050649;28;20045;-75
2023/01/02 00:05:27;;;;;;;89.07;59.22;;;;;;;1.97;100.00;101076.06;5049594;28;20567;-74
2023/01/02 00:07:53;;;;;;;94.20;60.00;;;;;;;2.04;100.00;101100.50;5050422;28;20067;-75
2023/01/02 00:10:18;;;;;;;85.75;54.05;;;;;;;2.28;100.00;101164.59;5050835;28;20029;-74
2023/01/02 00:12:44;;;;;;;81.10;53.67;;;;;;;2.21;100.00;101160.28;5054616;28;20033;-74
2023/01/02 00:15:10;;;;;;;83.95;55.65;;;;;;;2.06;100.00;101097.19;5054860;28;20394;-74
2023/01/02 00:17:35;;;;;;;95.78;59.60;;;;;;;1.84;100.00;101089.13;5054405;28;20036;-72
2023/01/02 00:20:01;;;;;;;97.45;60.92;;;;;;;1.36;100.00;101041.97;5054387;28;20029;-73
2023/01/02 00:22:26;;;;;;;105.00;59.88;;;;;;;2.05;100.00;101182.41;5054481;28;20119;-74
2023/01/02 00:24:52;;;;;;;91.85;56.83;;;;;;;1.16;100.00;101038.09;5054178;28;20117;-73
2023/01/02 00:27:17;;;;;;;71.88;46.50;;;;;;;1.87;100.00;101174.41;5053602;28;20023;-73
2023/01/02 00:29:42;;;;;;;70.18;43.72;;;;;;;1.48;100.00;101180.06;5053356;28;20029;-74
2023/01/02 00:32:08;;;;;;;72.90;45.05;;;;;;;1.35;100.00;101145.44;5054540;28;20036;-74
2023/01/02 00:34:33;;;;;;;73.30;42.85;;;;;;;0.96;100.00;101129.28;5054209;28;20047;-73
2023/01/02 00:36:58;;;;;;;81.50;46.05;;;;;;;1.26;100.00;101182.75;5054404;28;20108;-74
2023/01/02 00:39:24;;;;;;;92.90;43.35;;;;;;;1.18;100.00;101183.34;5054192;28;20025;-73
2023/01/02 00:41:49;;;;;;;82.63;42.47;;;;;;;1.18;100.00;101135.75;5054226;28;20400;-73
2023/01/02 00:44:15;;;;;;;113.88;42.85;;;;;;;0.55;100.00;101134.72;5053845;28;20029;-73
2023/01/02 00:46:40;;;;;;;127.55;45.85;;;;;;;0.65;100.00;101126.69;5054095;28;20123;-73
2023/01/02 00:49:05;;;;;;;147.68;48.53;;;;;;;0.86;100.00;101169.88;5053869;28;20029;-73
2023/01/02 00:51:31;;;;;;;95.82;43.33;;;;;;;1.19;100.00;101175.03;5052861;28;20045;-73
2023/01/02 00:53:56;;;;;;;136.20;45.92;;;;;;;1.21;100.00;101166.75;5052581;28;20036;-75
2023/01/02 00:56:22;;;;;;;138.77;47.00;;;;;;;1.21;100.00;101163.41;5053719;28;20029;-73
2023/01/02 00:58:48;;;;;;;161.95;49.72;;;;;;;0.62;100.00;101099.94;5054351;28;20025;-73
2023/01/02 01:01:14;;;;;;;138.15;45.40;;;;;;;0.92;100.00;101146.66;5052919;28;20033;-73
2023/01/02 01:03:42;;;;;;;132.35;45.72;;;;;;;0.88;100.00;101154.09;5053344;28;20526;-74
2023/01/02 01:06:09;;;;;;;133.95;46.30;;;;;;;0.80;100.00;101153.03;5053901;28;20032;-73
2023/01/02 01:08:35;;;;;;;114.22;45.55;;;;;;;0.60;100.00;101141.56;5053634;28;20028;-73
2023/01/02 01:11:09;;;;;;;91.90;44.45;;;;;;;1.07;100.00;101139.63;5051911;28;20111;-73
2023/01/02 01:13:35;;;;;;;131.13;48.00;;;;;;;0.31;100.00;101058.94;5052078;28;20029;-73
2023/01/02 01:16:10;;;;;;;110.78;47.97;;;;;;;0.98;100.00;101132.69;5053547;28;20033;-73
2023/01/02 01:18:35;;;;;;;101.82;47.95;;;;;;;0.91;100.00;101139.97;5053894;28;20033;-73
2023/01/02 01:21:09;;;;;;;105.57;49.65;;;;;;;0.87;100.00;101139.06;5053489;28;20032;-73
2023/01/02 01:23:34;;;;;;;84.78;45.08;;;;;;;0.98;100.00;101142.72;5053172;28;20025;-73
2023/01/02 01:26:03;;;;;;;88.28;46.45;;;;;;;1.02;100.00;101129.47;5052339;28;20025;-74
2023/01/02 01:28:29;;;;;;;86.07;45.25;;;;;;;1.01;100.00;101127.75;5051975;28;20127;-75
2023/01/02 01:30:54;;;;;;;78.82;42.60;;;;;;;0.48;100.00;101046.16;5053388;28;20575;-73
2023/01/02 01:33:19;;;;;;;79.95;43.17;;;;;;;0.99;100.00;101116.03;5052986;28;20044;-74
2023/01/02 01:35:45;;;;;;;80.65;43.78;;;;;;;1.17;100.00;101122.38;5052801;28;20112;-74
2023/01/02 01:38:10;;;;;;;74.90;41.85;;;;;;;1.12;100.00;101118.06;5052925;28;20032;-74
2023/01/02 01:40:37;;;;;;;76.57;43.15;;;;;;;1.36;100.00;101122.13;5053227;28;20442;-73
2023/01/02 01:43:03;;;;;;;87.60;47.90;;;;;;;0.95;100.00;101060.03;5053118;28;20029;-74
2023/01/02 01:45:28;;;;;;;88.97;49.92;;;;;;;1.44;100.00;101115.66;5052766;28;20039;-73
2023/01/02 01:47:58;;;;;;;97.63;52.13;;;;;;;1.27;100.00;101084.28;5053010;28;20459;-75
2023/01/02 01:50:31;;;;;;;145.02;84.88;;;;;;;1.32;100.00;101121.97;5052964;28;20760;-75
2023/01/02 01:53:07;;;;;;;107.72;59.83;;;;;;;1.36;100.00;101104.59;5051844;28;20092;-75
2023/01/02 01:55:37;;;;;;;89.97;49.40;;;;;;;1.24;100.00;101120.91;5052329;28;20039;-75
2023/01/02 01:58:16;;;;;;;92.82;46.03;;;;;;;0.99;100.00;101036.75;5051522;28;20033;-75
2023/01/02 02:00:42;;;;;;;92.93;49.40;;;;;;;0.88;100.00;101040.63;5051618;28;20119;-75
2023/01/02 02:03:13;;;;;;;88.07;46.63;;;;;;;1.30;100.00;101126.09;5052389;28;20048;-75
2023/01/02 02:05:40;;;;;;;82.95;45.53;;;;;;;0.66;100.00;101044.19;5053169;28;20035;-74
2023/01/02 02:08:36;;;;;;;94.28;51.47;;;;;;;1.28;100.00;101118.53;5052684;28;20035;-74
2023/01/02 02:11:02;;;;;;;80.32;44.00;;;;;;;1.31;100.00;101110.25;5050557;28;20550;-74
2023/01/02 02:13:32;;;;;;;78.32;43.00;;;;;;;1.44;100.00;101115.66;5052336;28;20035;-75
2023/01/02 02:16:00;;;;;;;81.20;44.30;;;;;;;1.26;100.00;101130.19;5051619;28;20030;-74
2023/01/02 02:18:47;;;;;;;94.03;49.55;;;;;;;0.91;100.00;101105.81;5052442;28;20071;-75
2023/01/02 02:21:30;;;;;;;90.38;47.08;;;;;;;0.73;100.00;101126.09;5052282;28;20028;-75
2023/01/02 02:24:08;;;;;;;93.13;46.15;;;;;;;-0.04;100.00;101060.38;5051202;28;20137;-75
2023/01/02 02:26:39;;;;;;;98.72;48.85;;;;;;;0.78;100.00;101126.25;5052484;28;20223;-75
2023/01/02 02:29:20;;;;;;;89.68;46.53;;;;;;;0.78;100.00;101123.75;5052152;28;20040;-74
2023/01/02 02:31:51;;;;;;;82.57;41.90;;;;;;;0.80;100.00;101128.00;5052395;28;20163;-75
2023/01/02 02:34:32;;;;;;;78.68;37.67;;;;;;;0.56;100.00;101127.25;5051801;28;20116;-75
2023/01/02 02:37:05;;;;;;;77.77;38.97;;;;;;;0.70;100.00;101135.19;5052144;28;20044;-73
2023/01/02 02:39:42;;;;;;;75.97;39.67;;;;;;;0.56;100.00;101124.75;5052198;28;20064;-75
2023/01/02 02:42:24;;;;;;;74.72;38.85;;;;;;;0.78;100.00;101099.59;5051027;28;20121;-75
2023/01/02 02:44:49;;;;;;;;;;;;;;;0.89;100.00;101123.25;5051402;28;20583;-76
2023/01/02 02:47:40;;;;;;;73.18;37.75;;;;;;;0.48;100.00;101055.28;5052458;28;20037;-75
2023/01/02 02:50:12;;;;;;;79.13;39.00;;;;;;;0.86;100.00;101117.31;5051216;28;20056;-76
2023/01/02 02:52:44;;;;;;;87.72;38.88;;;;;;;0.23;100.00;101062.88;5052031;28;20491;-74
2023/01/02 02:55:25;;;;;;;81.03;39.50;;;;;;;0.78;100.00;101103.72;5050214;28;20416;-74
2023/01/02 02:57:52;;;;;;;52.35;29.88;;;;;;;0.79;100.00;101111.28;5050995;28;20060;-74
2023/01/02 03:00:21;;;;;;;70.70;39.70;;;;;;;0.44;100.00;101081.88;5050347;28;20075;-75
2023/01/02 03:02:46;;;;;;;89.85;42.85;;;;;;;0.46;100.00;101099.41;5036806;28;20098;-73
2023/01/02 03:05:18;;;;;;;153.43;44.17;;;;;;;0.52;100.00;101075.44;5031771;28;20029;-74
2023/01/02 03:07:43;;;;;;;97.63;39.92;;;;;;;0.46;100.00;101104.41;5031900;28;20037;-76
2023/01/02 03:10:15;;;;;;;111.70;42.38;;;;;;;0.16;100.00;101103.47;5046398;28;20060;-74
2023/01/02 03:13:04;;;;;;;89.55;41.33;;;;;;;0.63;100.00;101096.66;5030926;28;20049;-74
2023/01/02 03:15:36;;;;;;;81.07;39.75;;;;;;;0.39;100.00;101022.53;5048305;28;20028;-74
2023/01/02 03:18:13;;;;;;;102.35;40.10;;;;;;;0.46;100.00;101107.78;5051292;28;20033;-73
2023/01/02 03:20:52;;;;;;;77.45;41.55;;;;;;;0.59;100.00;101101.50;5051480;28;20025;-73
2023/01/02 03:23:22;;;;;;;93.30;41.90;;;;;;;0.46;100.00;101104.41;5050614;28;20051;-75
2023/01/02 03:25:48;;;;;;;84.93;41.45;;;;;;;0.07;100.00;101013.22;5051647;28;20032;-73
2023/01/02 03:28:17;;;;;;;115.68;45.08;;;;;;;0.67;100.00;101097.56;5050385;28;20025;-75
2023/01/02 03:30:45;;;;;;;132.93;42.15;;;;;;;0.18;100.00;101091.88;5051359;28;20159;-76
2023/01/02 03:33:16;;;;;;;138.05;41.63;;;;;;;0.53;100.00;101091.31;5051767;28;20058;-76
2023/01/02 03:35:49;;;;;;;85.90;41.22;;;;;;;0.63;100.00;101086.63;5050541;28;20035;-75
2023/01/02 03:38:21;;;;;;;82.57;39.83;;;;;;;0.43;100.00;101016.81;5050360;28;20129;-74
2023/01/02 03:40:54;;;;;;;135.05;41.95;;;;;;;0.41;100.00;101035.94;5051786;28;20033;-74
2023/01/02 03:43:27;;;;;;;141.75;45.42;;;;;;;-0.11;100.00;100954.38;5051470;28;20146;-74
2023/01/02 03:46:08;;;;;;;141.50;45.25;;;;;;;0.52;100.00;101070.44;5052465;28;20029;-73
2023/01/02 03:48:42;;;;;;;140.90;47.05;;;;;;;0.46;100.00;101080.25;5050405;28;20120;-74
2023/01/02 03:51:07;;;;;;;99.93;45.10;;;;;;;0.53;100.00;101059.66;5048279;28;20051;-74
2023/01/02 03:53:35;;;;;;;112.55;47.03;;;;;;;0.12;100.00;100956.72;5054868;28;20029;-73
2023/01/02 03:56:22;;;;;;;99.22;45.80;;;;;;;0.66;100.00;101088.34;5054903;28;20033;-74
2023/01/02 03:59:55;;;;;;;113.38;46.53;;;;;;;0.75;100.00;101081.97;5055627;28;20031;-74
2023/01/02 04:02:37;;;;;;;102.20;45.40;;;;;;;0.42;100.00;101052.59;4961647;28;20059;-74
2023/01/02 04:05:13;;;;;;;96.05;46.72;;;;;;;0.47;100.00;101088.63;4974238;28;20030;-75
2023/01/02 04:07:53;;;;;;;100.15;47.28;;;;;;;0.65;100.00;101092.50;5025848;28;20442;-75
2023/01/02 04:10:20;;;;;;;89.85;46.05;;;;;;;0.67;100.00;101088.41;5054587;28;20093;-75
2023/01/02 04:12:51;;;;;;;105.07;50.25;;;;;;;0.99;100.00;101084.31;5053944;28;20040;-74
2023/01/02 04:15:19;;;;;;;116.22;46.17;;;;;;;0.77;100.00;101089.53;5034985;28;20037;-75
2023/01/02 04:18:06;;;;;;;109.90;46.05;;;;;;;0.52;100.00;101089.59;5034602;28;20037;-76
2023/01/02 04:20:37;;;;;;;101.10;45.08;;;;;;;0.49;100.00;101012.00;5034196;28;20057;-73
2023/01/02 04:23:33;;;;;;;113.32;46.58;;;;;;;0.77;100.00;101087.03;5034601;28;20030;-74
2023/01/02 04:26:07;;;;;;;117.10;43.53;;;;;;;0.27;100.00;101020.53;5034360;28;20042;-74
2023/01/02 04:28:33;;;;;;;128.32;46.53;;;;;;;0.80;100.00;101097.97;5066336;28;20515;-73
2023/01/02 04:31:12;;;;;;;155.25;51.28;;;;;;;0.73;100.00;101093.59;5053345;28;20040;-75
2023/01/02 04:33:50;;;;;;;168.93;49.53;;;;;;;0.07;100.00;101034.06;5054822;28;20047;-73
2023/01/02 04:36:23;;;;;;;154.88;46.70;;;;;;;-0.22;100.00;101075.59;5054037;28;20029;-73
2023/01/02 04:38:49;;;;;;;256.42;49.40;;;;;;;0.19;100.00;101083.56;5047364;28;20037;-75
2023/01/02 04:41:25;;;;;;;79.20;42.10;;;;;;;4.50;100.00;101009.69;5051718;28;20036;-73
2023/01/02 04:43:57;;;;;;;228.20;57.17;;;;;;;0.59;100.00;100977.28;5045845;28;20198;-74
2023/01/02 04:46:24;;;;;;;153.82;44.88;;;;;;;0.18;100.00;100977.72;5053907;28;20029;-73
2023/01/02 04:48:50;;;;;;;270.10;46.88;;;;;;;0.30;100.00;101023.09;5053027;28;20187;-73
2023/01/02 04:51:15;;;;;;;140.65;43.13;;;;;;;0.17;100.00;101025.19;5046977;28;20536;-73
2023/01/02 04:53:41;;;;;;;152.13;44.03;;;;;;;0.72;100.00;101018.50;5052392;28;20127;-77
2023/01/02 04:56:06;;;;;;;132.35;44.72;;;;;;;0.65;100.00;101006.63;5051660;28;20025;-74
2023/01/02 04:58:32;;;;;;;117.70;46.38;;;;;;;0.31;100.00;101017.31;5052643;28;20438;-76
2023/01/02 05:00:58;;;;;;;108.90;47.47;;;;;;;0.18;100.00;100919.41;5052077;28;20033;-76
2023/01/02 05:03:24;;;;;;;112.38;45.55;;;;;;;0.09;100.00;100946.63;5050108;28;20450;-75
2023/01/02 05:05:49;;;;;;;87.72;44.75;;;;;;;0.36;100.00;101010.78;5052926;28;20570;-73
2023/01/02 05:08:15;;;;;;;147.13;49.28;;;;;;;0.35;100.00;101011.59;5053344;28;20027;-74
2023/01/02 05:10:40;;;;;;;151.55;49.40;;;;;;;0.35;100.00;101013.25;5053793;28;20119;-74
2023/01/02 05:13:05;;;;;;;207.07;78.60;;;;;;;0.57;100.00;101016.41;5052469;28;20055;-73
2023/01/02 05:15:31;;;;;;;242.77;87.03;;;;;;;0.28;100.00;100976.38;5052836;28;20414;-75
2023/01/02 05:17:57;;;;;;;267.08;98.32;;;;;;;0.45;100.00;101000.19;5053249;28;20116;-74
2023/01/02 05:20:23;;;;;;;148.57;49.60;;;;;;;0.53;100.00;101033.78;5051865;28;20036;-73
2023/01/02 05:25:34;;;;;;;84.78;44.75;;;;;;;0.52;100.00;101042.06;5052960;28;20522;-75
2023/01/02 05:28:01;;;;;;;109.72;50.22;;;;;;;0.53;100.00;101036.28;5052535;28;20037;-73
2023/01/02 05:30:27;;;;;;;102.68;50.40;;;;;;;0.13;100.00;101038.38;5048611;28;20037;-73
2023/01/02 05:32:53;;;;;;;121.15;53.70;;;;;;;0.24;100.00;101035.41;5047092;28;20698;-71
2023/01/02 05:35:18;;;;;;;112.63;51.60;;;;;;;0.34;100.00;101046.53;5051587;28;20091;-72
2023/01/02 05:37:44;;;;;;;85.25;48.25;;;;;;;0.31;100.00;101027.31;5052372;28;20033;-76
2023/01/02 05:40:10;;;;;;;86.82;46.03;;;;;;;0.07;100.00;100970.72;5052037;28;20025;-78
2023/01/02 05:42:35;;;;;;;82.43;46.95;;;;;;;0.23;100.00;100983.72;5053530;28;20032;-77
2023/01/02 05:45:01;;;;;;;94.60;52.00;;;;;;;-0.01;100.00;100978.84;5049099;28;20114;-77
2023/01/02 05:47:26;;;;;;;116.95;65.75;;;;;;;-0.13;100.00;100985.97;5053200;28;20029;-75
2023/01/02 05:49:52;;;;;;;105.40;59.83;;;;;;;0.75;100.00;101053.63;5053286;28;20025;-82
2023/01/02 05:52:17;;;;;;;79.03;45.25;;;;;;;0.27;100.00;101082.16;5053169;28;20035;-80
2023/01/02 05:54:42;;;;;;;80.78;45.63;;;;;;;0.10;100.00;101063.31;5052190;28;20064;-77
2023/01/02 05:57:08;;;;;;;89.78;46.22;;;;;;;0.03;100.00;101056.41;5052669;28;20025;-76
2023/01/02 05:59:33;;;;;;;98.35;48.10;;;;;;;-0.05;100.00;101003.69;5052821;28;20037;-75
2023/01/02 06:01:59;;;;;;;98.80;57.28;;;;;;;0.39;100.00;101087.53;5052559;28;20041;-76
2023/01/02 06:04:24;;;;;;;115.32;58.22;;;;;;;0.45;100.00;101082.72;5052904;28;20028;-79
2023/01/02 06:06:50;;;;;;;99.35;54.53;;;;;;;0.57;100.00;101093.97;5052515;28;20029;-76
2023/01/02 06:09:16;;;;;;;108.22;51.53;;;;;;;0.49;100.00;101080.38;5052319;28;20037;-78
2023/01/02 06:11:42;;;;;;;156.70;77.72;;;;;;;0.46;100.00;101090.25;5051390;28;20021;-76
2023/01/02 06:14:21;;;;;;;165.55;88.35;;;;;;;0.12;100.00;101019.22;5052402;28;20029;-75
2023/01/02 06:16:46;;;;;;;195.35;79.93;;;;;;;0.23;100.00;101045.38;5051217;28;20037;-75
2023/01/02 06:19:12;;;;;;;200.13;76.82;;;;;;;0.20;100.00;101045.28;5052396;28;20040;-76
2023/01/02 06:21:37;;;;;;;178.85;71.32;;;;;;;0.71;100.00;101089.34;5052060;28;20090;-75
2023/01/02 06:24:02;;;;;;;233.93;77.13;;;;;;;-0.10;100.00;101056.00;5052098;28;20084;-75
2023/01/02 06:26:28;;;;;;;241.68;116.38;;;;;;;0.42;100.00;101047.59;5052159;28;20120;-74
2023/01/02 06:28:56;;;;;;;275.35;113.80;;;;;;;0.62;100.00;101096.56;5052520;28;20473;-72
2023/01/02 06:31:24;;;;;;;203.15;112.93;;;;;;;0.69;100.00;101095.97;5052045;28;20499;-77
2023/01/02 06:33:57;;;;;;;245.32;104.32;;;;;;;0.62;100.00;101092.44;5052558;28;20139;-77
2023/01/02 06:36:22;;;;;;;274.73;82.65;;;;;;;0.23;100.00;101097.88;5061544;28;20029;-77
2023/01/02 06:38:48;;;;;;;249.55;64.88;;;;;;;0.03;100.00;101116.38;5053413;28;20040;-77
2023/01/02 06:41:14;;;;;;;146.75;54.47;;;;;;;-0.27;100.00;101027.16;5052004;28;20032;-77
2023/01/02 06:43:46;;;;;;;227.95;52.05;;;;;;;-0.56;100.00;100995.41;5051219;28;20113;-75
2023/01/02 06:46:12;;;;;;;246.60;55.25;;;;;;;0.41;100.00;101090.94;5051806;28;20029;-75
2023/01/02 06:48:38;;;;;;;129.23;49.05;;;;;;;0.83;100.00;100959.59;5046868;28;20040;-73
2023/01/02 06:51:08;;;;;;;107.35;53.13;;;;;;;5.00;100.00;101011.97;5051548;28;20032;-75
2023/01/02 06:53:35;;;;;;;206.32;72.30;;;;;;;0.26;100.00;101011.31;5051510;28;20037;-76
2023/01/02 06:56:01;;;;;;;328.73;91.00;;;;;;;0.18;100.00;101021.91;5037783;28;20272;-77
2023/01/02 06:58:30;;;;;;;238.80;59.67;;;;;;;0.58;100.00;101098.16;5031973;28;20484;-78
2023/01/02 07:01:02;;;;;;;164.23;53.72;;;;;;;-0.03;100.00;101027.94;5031819;28;20029;-77
2023/01/02 07:03:27;;;;;;;187.57;56.08;;;;;;;0.27;100.00;101062.16;5030616;28;20131;-76
2023/01/02 07:05:53;;;;;;;259.20;61.80;;;;;;;0.40;100.00;101117.59;5030773;28;20563;-75
2023/01/02 07:08:18;;;;;;;177.68;53.30;;;;;;;0.05;100.00;101049.78;5030988;28;20021;-76
2023/01/02 07:10:44;;;;;;;230.32;67.88;;;;;;;0.30;100.00;101133.09;5030154;28;20033;-77
2023/01/02 07:13:09;;;;;;;230.75;88.43;;;;;;;0.15;100.00;101094.28;5031439;28;20037;-76
2023/01/02 07:15:35;;;;;;;315.38;87.18;;;;;;;0.28;100.00;101123.88;5031720;28;20090;-76
2023/01/02 07:18:00;;;;;;;236.48;84.05;;;;;;;0.82;100.00;101120.53;5031345;28;20029;-75
2023/01/02 07:20:25;;;;;;;322.52;85.53;;;;;;;0.05;100.00;101045.66;5034538;28;20037;-77
2023/01/02 07:22:52;;;;;;;172.82;71.57;;;;;;;0.41;100.00;101039.28;5035984;28;20164;-76
2023/01/02 07:25:19;;;;;;;183.35;78.25;;;;;;;0.66;100.00;101095.88;5036552;28;20041;-77
2023/01/02 07:27:44;;;;;;;226.68;81.70;;;;;;;0.11;100.00;101055.84;5035135;28;20025;-76
2023/01/02 07:30:11;;;;;;;206.73;85.25;;;;;;;0.66;100.00;101129.25;5034951;28;20100;-76
2023/01/02 07:32:36;;;;;;;253.07;86.13;;;;;;;0.63;100.00;101140.81;5036302;28;20025;-77
2023/01/02 07:35:01;;;;;;;227.80;90.20;;;;;;;0.65;100.00;101117.53;5035900;28;20033;-76
2023/01/02 07:37:27;;;;;;;208.32;83.93;;;;;;;1.11;100.00;101124.72;5035647;28;20089;-74
2023/01/02 07:39:52;;;;;;;172.38;83.72;;;;;;;1.12;100.00;101136.44;5036027;28;20021;-75
2023/01/02 07:42:18;;;;;;;221.18;90.63;;;;;;;0.71;100.00;101082.69;5035986;28;20049;-74
2023/01/02 07:44:43;;;;;;;173.23;74.00;;;;;;;0.72;100.00;101079.38;5035912;28;20426;-76
2023/01/02 07:47:09;;;;;;;220.15;79.75;;;;;;;0.45;100.00;101055.22;5035095;28;20029;-77
2023/01/02 07:49:34;;;;;;;239.93;113.15;;;;;;;0.97;100.00;101093.44;5035615;28;20404;-75
2023/01/02 07:51:59;;;;;;;234.38;100.65;;;;;;;0.91;100.00;101089.94;5034220;28;20061;-76
2023/01/02 07:54:25;;;;;;;225.48;88.03;;;;;;;0.79;100.00;101135.47;5035148;28;20032;-75
2023/01/02 07:56:51;;;;;;;266.08;90.03;;;;;;;0.56;100.00;101089.75;5035239;28;20029;-76
2023/01/02 07:59:16;;;;;;;255.95;92.75;;;;;;;0.98;100.00;101114.31;5035880;28;20502;-75
2023/01/02 08:01:42;;;;;;;361.25;103.10;;;;;;;0.70;100.00;101096.00;5034463;28;20108;-77
2023/01/02 08:04:07;;;;;;;202.75;91.05;;;;;;;1.20;100.00;101089.94;5035005;28;20545;-74
2023/01/02 08:06:33;;;;;;;257.70;99.28;;;;;;;1.55;100.00;101140.97;5034698;28;20452;-76
2023/01/02 08:08:59;;;;;;;410.52;234.90;;;;;;;1.84;100.00;101137.59;5034212;28;20029;-76
2023/01/02 08:11:24;;;;;;;280.52;122.90;;;;;;;1.38;100.00;101140.53;5035075;28;20041;-76
2023/01/02 08:13:50;;;;;;;188.88;87.55;;;;;;;1.68;100.00;101141.34;5035020;28;20026;-76
2023/01/02 08:16:18;;;;;;;153.55;72.00;;;;;;;1.08;100.00;101072.06;5033826;28;20061;-76
2023/01/02 08:18:45;;;;;;;152.93;73.60;;;;;;;1.56;100.00;101062.53;5035050;28;20029;-77
2023/01/02 08:21:12;;;;;;;234.32;114.63;;;;;;;1.91;100.00;101131.06;5035189;28;20031;-76
2023/01/02 08:23:38;;;;;;;193.18;91.30;;;;;;;2.05;100.00;101119.72;5034277;28;20029;-77
2023/01/02 08:26:06;;;;;;;245.77;98.25;;;;;;;1.51;100.00;101064.91;5035142;28;20030;-76
2023/01/02 08:28:33;;;;;;;187.93;84.05;;;;;;;1.67;100.00;101148.81;5033847;28;20056;-76
2023/01/02 08:30:59;;;;;;;159.75;71.82;;;;;;;1.84;100.00;101125.06;5033940;28;20065;-75
2023/01/02 08:33:26;;;;;;;183.20;71.25;;;;;;;1.63;100.00;101049.31;5034806;28;20034;-74
2023/01/02 08:35:52;;;;;;;159.55;59.95;;;;;;;1.54;100.00;101079.16;5034381;28;20625;-75
2023/01/02 08:38:17;;;;;;;170.50;63.90;;;;;;;0.98;100.00;100999.19;5034818;28;20071;-75
2023/01/02 08:40:43;;;;;;;197.98;71.95;;;;;;;1.39;100.00;101056.19;5033376;28;20021;-75
2023/01/02 08:43:08;;;;;;;168.65;74.90;;;;;;;1.76;100.00;101041.31;5034618;28;20094;-75
2023/01/02 08:45:34;;;;;;;254.32;92.15;;;;;;;1.49;100.00;101050.63;5033164;28;20037;-75
2023/01/02 08:48:00;;;;;;;215.52;83.40;;;;;;;1.84;100.00;101061.56;5034106;28;20037;-75
2023/01/02 08:50:26;;;;;;;198.35;75.45;;;;;;;1.62;100.00;101078.53;5034181;28;20546;-74
2023/01/02 08:52:52;;;;;;;165.27;65.85;;;;;;;2.13;100.00;101119.09;5033321;28;20041;-76
2023/01/02 08:55:18;;;;;;;169.18;63.00;;;;;;;2.33;100.00;101110.41;5067073;28;20030;-76
2023/01/02 08:57:43;;;;;;;228.00;70.68;;;;;;;2.09;100.00;101118.97;5033091;28;20079;-76
2023/01/02 09:00:10;;;;;;;193.63;77.78;;;;;;;1.98;100.00;101045.19;5066654;28;20032;-76
2023/01/02 09:02:35;;;;;;;191.85;85.63;;;;;;;1.83;100.00;100997.19;5032711;28;20063;-76
2023/01/02 09:05:00;;;;;;;269.70;71.88;;;;;;;2.31;100.00;101093.59;5034340;28;20093;-78
2023/01/02 09:07:26;;;;;;;339.50;74.82;;;;;;;1.71;100.00;101051.22;5066854;28;20479;-78
2023/01/02 09:09:51;;;;;;;182.00;69.35;;;;;;;2.66;100.00;101105.28;5034358;28;20029;-76
2023/01/02 09:12:17;;;;;;;179.45;73.05;;;;;;;2.71;100.00;101102.88;5034603;28;20030;-76
2023/01/02 09:14:42;;;;;;;209.77;76.38;;;;;;;2.64;100.00;101039.16;5065842;28;20029;-73
2023/01/02 09:17:08;;;;;;;173.23;72.45;;;;;;;2.81;100.00;101085.53;5032579;28;20124;-77
2023/01/02 09:19:34;;;;;;;142.77;65.90;;;;;;;3.08;100.00;101086.09;5032445;28;20030;-74
2023/01/02 09:22:00;;;;;;;190.55;71.72;;;;;;;2.93;100.00;101085.78;5032342;28;20036;-75
2023/01/02 09:24:26;;;;;;;283.10;71.10;;;;;;;2.13;100.00;100991.22;5033839;28;20033;-75
2023/01/02 09:26:52;;;;;;;218.13;71.07;;;;;;;3.03;100.00;101062.53;5033795;28;20021;-75
2023/01/02 09:29:18;;;;;;;178.75;63.63;;;;;;;2.88;100.00;101007.00;5033537;28;20033;-75
2023/01/02 09:31:44;;;;;;;171.63;65.97;;;;;;;2.86;100.00;100992.72;5033510;28;20112;-74
2023/01/02 09:34:10;;;;;;;140.75;59.75;;;;;;;3.18;100.00;101054.47;5033586;28;20085;-75
2023/01/02 09:36:35;;;;;;;147.95;64.35;;;;;;;3.49;100.00;101042.50;5032551;28;20690;-76
2023/01/02 09:39:00;;;;;;;220.63;74.28;;;;;;;2.81;100.00;100980.09;5033320;28;20130;-76
2023/01/02 09:41:52;;;;;;;191.60;69.03;;;;;;;2.88;100.00;101056.38;5033005;28;20089;-74
2023/01/02 09:44:29;;;;;;;248.70;74.97;;;;;;;2.94;100.00;101044.78;5030764;28;20037;-75
2023/01/02 09:47:07;;;;;;;285.85;77.38;;;;;;;3.15;100.00;101041.88;5032811;28;20122;-74
2023/01/02 09:49:41;;;;;;;202.48;73.00;;;;;;;3.34;100.00;101032.19;5047484;28;20033;-74
2023/01/02 09:52:12;;;;;;;207.35;77.63;;;;;;;3.48;100.00;101022.38;5053657;28;20032;-78
2023/01/02 09:54:38;;;;;;;254.82;76.30;;;;;;;3.35;100.00;101011.25;5053864;28;20043;-76
2023/01/02 09:57:25;;;;;;;260.52;78.65;;;;;;;3.74;100.00;101007.72;5053223;28;20041;-75
2023/01/02 10:00:21;;;;;;;293.05;84.55;;;;;;;3.65;100.00;101002.53;5053300;28;20111;-76
2023/01/02 10:03:39;;;;;;;298.60;96.40;;;;;;;3.80;100.00;100997.75;5048238;28;20125;-77
2023/01/02 10:06:13;;;;;;;240.18;90.60;;;;;;;4.07;100.00;100978.03;5053594;28;20582;-77
2023/01/02 10:09:12;;;;;;;283.75;98.85;;;;;;;4.11;100.00;100985.66;5052799;28;20025;-79
2023/01/02 10:11:44;;;;;;;254.98;96.47;;;;;;;4.18;100.00;100986.59;5052927;28;20037;-78
2023/01/02 10:14:37;;;;;;;227.23;77.88;;;;;;;3.74;100.00;100985.94;5052150;28;20487;-77
2023/01/02 10:17:06;;;;;;;295.60;86.95;;;;;;;3.41;100.00;100913.34;5052694;28;20052;-77
2023/01/02 10:19:37;;;;;;;257.67;89.13;;;;;;;4.07;100.00;100980.56;5053195;28;20254;-79
2023/01/02 10:22:04;;;;;;;216.40;85.53;;;;;;;4.33;100.00;100975.06;5051407;28;20082;-75
2023/01/02 10:24:32;;;;;;;219.90;90.03;;;;;;;4.48;100.00;100971.06;5052480;28;20031;-79
2023/01/02 10:26:59;;;;;;;235.35;95.53;;;;;;;4.77;100.00;100977.28;5052519;28;20406;-77
2023/01/02 10:29:30;;;;;;;232.82;96.03;;;;;;;4.85;100.00;100961.41;5052435;28;20124;-77
2023/01/02 10:32:12;;;;;;;236.82;98.47;;;;;;;4.36;100.00;100896.22;5051714;28;20033;-77
2023/01/02 10:34:49;;;;;;;235.05;100.57;;;;;;;4.31;100.00;100910.44;5052033;28;20044;-79
2023/01/02 10:37:16;;;;;;;236.88;96.18;;;;;;;4.24;100.00;100974.94;5051639;28;20037;-77
2023/01/02 10:39:43;;;;;;;227.50;98.13;;;;;;;4.70;100.00;100946.16;5051450;28;20025;-75
2023/01/02 10:42:13;;;;;;;234.95;102.72;;;;;;;4.84;100.00;100939.59;5051048;28;20028;-77
2023/01/02 10:44:40;;;;;;;210.88;100.38;;;;;;;4.54;100.00;100853.63;5051124;28;20466;-76
2023/01/02 10:47:21;;;;;;;225.93;97.60;;;;;;;5.26;100.00;100941.69;5051003;28;20025;-73
2023/01/02 10:49:48;;;;;;;224.03;95.50;;;;;;;4.71;100.00;100867.25;5051572;28;20091;-73
2023/01/02 10:52:25;;;;;;;235.15;101.00;;;;;;;4.90;100.00;100946.34;5051366;28;20041;-75
2023/01/02 10:54:55;;;;;;;226.88;102.25;;;;;;;4.88;100.00;100923.69;5051862;28;20033;-77
2023/01/02 10:57:35;;;;;;;227.68;107.60;;;;;;;5.35;100.00;100914.00;5052803;28;20056;-77
2023/01/02 11:00:03;;;;;;;219.52;105.20;;;;;;;5.50;100.00;100928.44;5052747;28;21306;-78
2023/01/02 11:02:39;;;;;;;204.57;94.55;;;;;;;5.06;100.00;100860.88;5052534;28;20048;-80
2023/01/02 11:05:18;;;;;;;191.15;90.88;;;;;;;5.34;100.00;100884.63;5051404;28;20048;-80
2023/01/02 11:07:48;;;;;;;193.45;90.20;;;;;;;5.51;100.00;100925.91;5051450;28;20029;-79
2023/01/02 11:10:40;;;;;;;207.77;96.47;;;;;;;5.51;100.00;100920.03;5052414;28;20056;-80
2023/01/02 11:13:14;;;;;;;187.85;91.85;;;;;;;5.54;100.00;100917.53;5050969;28;20045;-79
2023/01/02 11:16:01;;;;;;;174.43;85.78;;;;;;;5.05;100.00;100755.84;5051881;28;20052;-78
2023/01/02 11:18:33;;;;;;;179.77;87.22;;;;;;;5.56;100.00;100838.56;5051445;28;20033;-80